Terminal Aerodrome Forecast
Issued by NWS Twin Cities, MN

Home | Current Version | Previous Version | Text Only | Print | Product List | Glossary On
Versions: 1 2 3 4 5 6 7 8 9 10 11 12 13 14 15 16 17 18 19 20 21 22
000
FTUS43 KMPX 211600 AAB
TAFEAU
TAF AMD
KEAU 211604Z 2116/2212 09008KT P6SM SCT020
      TEMPO 2116/2118 BKN020
     FM211800 10008KT P6SM SCT030
     FM220000 12005KT P6SM SKC=

USA.gov is the U.S. government's official web portal to all federal, state and local government web resources and services.